Time;durP1;ratioP1;P1;durP2;ratioP2;P2;SDS_P1;SDS_P2;PMS_P1;PMS_P2;Temp;Humidity;BMP_temperature;BMP_pressure;BME280_temperature;BME280_humidity;BME280_pressure;Samples;Min_cycle;Max_cycle;Signal;HPM_P1;HPM_P2
2022/09/14 00:01:23;;;;;;;2.83;2.57;;;25.60;52.10;;;;;;5041690;28;20442;-47
2022/09/14 00:03:57;;;;;;;2.40;2.20;;;25.40;52.10;;;;;;5039930;28;20432;-49
2022/09/14 00:06:23;;;;;;;3.67;2.87;;;25.20;52.60;;;;;;5037029;28;20963;-50
2022/09/14 00:08:51;;;;;;;3.53;2.30;;;25.30;52.80;;;;;;5053678;28;20521;-47
2022/09/14 00:11:18;;;;;;;2.30;2.10;;;25.30;52.60;;;;;;5035437;28;20432;-46
2022/09/14 00:13:44;;;;;;;2.70;2.50;;;25.40;52.40;;;;;;5040121;28;20869;-46
2022/09/14 00:16:14;;;;;;;2.40;2.30;;;25.30;52.60;;;;;;5035888;28;20495;-46
2022/09/14 00:18:40;;;;;;;2.57;1.90;;;25.20;52.70;;;;;;5052123;28;20505;-48
2022/09/14 00:21:08;;;;;;;2.30;2.20;;;24.80;53.60;;;;;;5046603;28;20451;-47
2022/09/14 00:23:36;;;;;;;3.83;2.60;;;24.70;54.20;;;;;;5042610;28;20446;-47
2022/09/14 00:26:07;;;;;;;4.10;2.43;;;24.50;54.50;;;;;;5037891;28;20878;-50
2022/09/14 00:28:41;;;;;;;6.57;2.77;;;24.50;54.50;;;;;;5031064;28;20775;-48
2022/09/14 00:31:07;;;;;;;2.20;2.10;;;24.60;54.30;;;;;;5037522;28;20454;-46
2022/09/14 00:33:34;;;;;;;2.40;2.20;;;24.30;54.70;;;;;;5047015;28;20505;-47
2022/09/14 00:36:11;;;;;;;3.93;2.73;;;24.10;55.20;;;;;;5037262;28;20446;-50
2022/09/14 00:38:37;;;;;;;2.60;2.40;;;24.20;55.30;;;;;;5031499;28;20498;-46
2022/09/14 00:41:05;;;;;;;2.23;2.10;;;24.20;55.20;;;;;;5036169;28;20521;-46
2022/09/14 00:43:31;;;;;;;2.80;2.60;;;24.20;55.40;;;;;;5039489;28;20435;-49
2022/09/14 00:46:01;;;;;;;2.47;2.27;;;24.20;55.70;;;;;;5032985;28;20938;-48
2022/09/14 00:48:28;;;;;;;2.63;2.00;;;24.00;56.70;;;;;;5036939;28;20200;-50
2022/09/14 00:50:54;;;;;;;2.67;2.47;;;24.00;56.40;;;;;;5034799;28;20450;-50
2022/09/14 00:53:20;;;;;;;2.57;2.37;;;24.10;56.20;;;;;;5038196;28;20500;-46
2022/09/14 00:55:47;;;;;;;2.17;1.90;;;24.10;56.10;;;;;;5042695;28;20440;-48
2022/09/14 00:58:12;;;;;;;7.50;2.27;;;24.30;55.80;;;;;;5035159;28;20231;-49
2022/09/14 01:00:38;;;;;;;2.90;2.60;;;24.40;55.30;;;;;;5041517;28;20430;-46
2022/09/14 01:03:03;;;;;;;5.50;2.73;;;24.20;55.30;;;;;;5046716;28;20196;-47
2022/09/14 01:05:52;;;;;;;2.53;2.33;;;24.20;56.00;;;;;;5038581;28;20283;-46
2022/09/14 01:08:37;;;;;;;4.07;2.30;;;24.20;55.50;;;;;;5034384;28;20316;-47
2022/09/14 01:11:23;;;;;;;2.30;2.10;;;24.30;55.30;;;;;;5034556;28;20444;-47
2022/09/14 01:14:04;;;;;;;4.97;2.03;;;24.60;55.00;;;;;;5041204;28;20431;-47
2022/09/14 01:16:41;;;;;;;4.00;2.70;;;24.70;54.50;;;;;;5045620;28;20520;-47
2022/09/14 01:19:21;;;;;;;4.43;2.50;;;24.70;54.50;;;;;;5035129;28;20491;-47
2022/09/14 01:21:49;;;;;;;4.37;2.67;;;24.50;54.80;;;;;;5037790;28;20434;-47
2022/09/14 01:24:20;;;;;;;2.33;2.13;;;24.70;54.70;;;;;;5039477;28;20479;-47
2022/09/14 01:26:58;;;;;;;2.20;2.10;;;24.60;54.90;;;;;;5032777;28;20477;-48
2022/09/14 01:29:32;;;;;;;3.00;2.70;;;24.30;55.70;;;;;;5047618;28;20443;-48
2022/09/14 01:32:09;;;;;;;8.00;2.80;;;24.30;55.80;;;;;;5036193;28;20534;-48
2022/09/14 01:34:45;;;;;;;2.50;2.30;;;24.40;55.80;;;;;;5039489;28;20449;-47
2022/09/14 01:37:23;;;;;;;3.17;2.33;;;24.60;55.50;;;;;;5034671;28;20447;-48
2022/09/14 01:39:55;;;;;;;2.87;2.63;;;24.60;55.60;;;;;;5041447;28;20504;-48
2022/09/14 01:42:25;;;;;;;3.63;3.03;;;24.70;55.90;;;;;;5044461;28;20474;-49
2022/09/14 01:44:55;;;;;;;6.13;4.13;;;24.60;58.30;;;;;;5037210;28;20445;-49
2022/09/14 01:47:33;;;;;;;4.80;3.20;;;24.10;63.10;;;;;;5043823;28;20493;-50
2022/09/14 01:50:08;;;;;;;10.17;3.60;;;24.10;65.60;;;;;;5044463;28;20446;-47
2022/09/14 01:52:41;;;;;;;6.57;3.17;;;24.10;66.00;;;;;;5050989;28;20449;-49
2022/09/14 01:55:15;;;;;;;5.73;3.50;;;24.30;65.90;;;;;;5039091;28;20467;-48
2022/09/14 01:58:03;;;;;;;14.30;4.00;;;24.50;65.20;;;;;;5048081;28;20466;-48
2022/09/14 02:00:30;;;;;;;3.80;3.47;;;24.70;64.80;;;;;;5044701;28;20501;-48
2022/09/14 02:03:24;;;;;;;9.30;4.13;;;24.80;65.10;;;;;;5042837;28;20496;-48
2022/09/14 02:06:04;;;;;;;5.77;3.73;;;24.80;65.60;;;;;;5034464;28;20458;-50
2022/09/14 02:08:30;;;;;;;7.23;3.93;;;24.80;65.90;;;;;;5037627;28;20881;-48
2022/09/14 02:10:57;;;;;;;3.70;3.40;;;24.80;66.40;;;;;;5036575;28;21322;-48
2022/09/14 02:13:23;;;;;;;6.77;3.67;;;24.70;66.70;;;;;;5034981;28;20810;-48
2022/09/14 02:15:49;;;;;;;6.10;3.87;;;24.50;66.70;;;;;;5033782;28;20467;-48
2022/09/14 02:18:14;;;;;;;4.10;3.33;;;24.50;67.10;;;;;;5040009;28;20522;-48
2022/09/14 02:20:49;;;;;;;4.10;2.90;;;24.50;67.00;;;;;;5042063;28;20235;-50
2022/09/14 02:23:16;;;;;;;5.83;3.03;;;24.60;66.90;;;;;;5041755;28;20702;-47
2022/09/14 02:25:41;;;;;;;3.20;2.90;;;24.60;66.80;;;;;;5031748;28;20483;-48
2022/09/14 02:28:07;;;;;;;6.30;3.57;;;24.60;66.80;;;;;;5034759;28;20463;-48
2022/09/14 02:31:00;;;;;;;4.70;3.43;;;24.60;66.70;;;;;;5032618;28;20197;-49
2022/09/14 02:34:01;;;;;;;3.20;2.93;;;24.60;66.90;;;;;;5031332;28;20218;-49
2022/09/14 02:36:30;;;;;;;3.60;3.30;;;24.60;67.20;;;;;;5040209;28;20451;-51
2022/09/14 02:39:07;;;;;;;3.60;3.30;;;24.60;67.30;;;;;;5033671;28;20572;-48
2022/09/14 02:41:36;;;;;;;3.00;2.80;;;24.60;67.20;;;;;;5032009;28;20451;-51
2022/09/14 02:44:10;;;;;;;3.50;3.20;;;24.60;67.00;;;;;;5035360;28;20447;-48
2022/09/14 02:46:54;;;;;;;3.40;2.90;;;24.60;67.10;;;;;;5042073;28;20435;-51
2022/09/14 02:49:33;;;;;;;3.30;2.67;;;24.60;67.40;;;;;;5045827;28;20455;-52
2022/09/14 02:52:07;;;;;;;2.93;2.63;;;24.60;67.40;;;;;;5035651;28;20493;-48
2022/09/14 02:54:39;;;;;;;3.57;3.10;;;24.60;67.50;;;;;;5045260;28;20972;-52
2022/09/14 02:57:05;;;;;;;3.20;2.90;;;24.60;67.70;;;;;;5033921;28;20799;-52
2022/09/14 02:59:30;;;;;;;7.40;3.23;;;24.60;68.30;;;;;;5030651;28;20914;-52
2022/09/14 03:01:58;;;;;;;3.40;3.10;;;24.60;68.00;;;;;;5037178;28;20538;-50
2022/09/14 03:04:24;;;;;;;3.60;3.10;;;24.50;68.20;;;;;;5039934;28;20196;-50
2022/09/14 03:06:50;;;;;;;3.43;3.13;;;24.40;68.80;;;;;;5037950;28;20514;-51
2022/09/14 03:09:15;;;;;;;7.00;3.40;;;24.50;68.60;;;;;;5029912;28;20193;-47
2022/09/14 03:11:41;;;;;;;4.13;3.37;;;24.50;68.30;;;;;;5029140;28;20229;-48
2022/09/14 03:14:08;;;;;;;4.83;3.93;;;24.60;68.30;;;;;;5038386;28;20648;-49
2022/09/14 03:16:33;;;;;;;3.93;3.53;;;24.60;68.20;;;;;;5038540;28;20196;-52
2022/09/14 03:18:59;;;;;;;5.30;3.63;;;24.60;68.70;;;;;;5048003;28;20549;-52
2022/09/14 03:21:24;;;;;;;6.93;3.97;;;24.60;68.60;;;;;;5038800;28;20275;-50
2022/09/14 03:23:53;;;;;;;5.70;3.33;;;24.60;68.50;;;;;;5044510;28;20220;-48
2022/09/14 03:26:20;;;;;;;6.90;3.30;;;24.60;68.30;;;;;;5041072;28;20989;-48
2022/09/14 03:28:54;;;;;;;4.37;3.57;;;24.50;67.90;;;;;;5041712;28;20439;-52
2022/09/14 03:31:21;;;;;;;5.17;3.50;;;24.30;68.30;;;;;;5045945;28;20445;-48
2022/09/14 03:33:51;;;;;;;7.57;3.90;;;23.80;71.20;;;;;;5042972;28;20431;-49
2022/09/14 03:36:18;;;;;;;5.23;4.23;;;23.70;71.50;;;;;;5039485;28;21042;-48
2022/09/14 03:38:47;;;;;;;4.70;4.20;;;23.60;72.40;;;;;;5034601;28;20486;-50
2022/09/14 03:41:13;;;;;;;6.00;3.80;;;23.70;72.20;;;;;;5031811;28;22013;-47
2022/09/14 03:43:40;;;;;;;4.87;3.70;;;23.50;72.70;;;;;;5043844;28;20442;-49
2022/09/14 03:46:07;;;;;;;12.50;4.90;;;23.40;72.90;;;;;;5040034;28;20455;-48
2022/09/14 03:48:32;;;;;;;4.40;3.60;;;23.40;72.70;;;;;;5040334;28;20811;-50
2022/09/14 03:51:03;;;;;;;7.27;3.40;;;23.50;72.60;;;;;;5044090;28;20454;-51
2022/09/14 03:53:29;;;;;;;4.40;4.10;;;23.70;73.10;;;;;;5051556;28;20201;-47
2022/09/14 03:55:55;;;;;;;4.13;3.37;;;23.80;71.80;;;;;;5048285;28;20447;-50
2022/09/14 03:58:21;;;;;;;5.60;3.90;;;23.90;71.70;;;;;;5049671;28;20482;-48
2022/09/14 04:00:47;;;;;;;5.90;4.03;;;23.90;71.60;;;;;;5046735;28;20188;-52
2022/09/14 04:03:12;;;;;;;6.10;4.20;;;24.00;71.40;;;;;;5040422;28;20443;-51
2022/09/14 04:05:38;;;;;;;3.87;3.40;;;23.90;71.30;;;;;;5043425;28;20250;-52
2022/09/14 04:08:03;;;;;;;3.00;2.80;;;23.80;71.40;;;;;;5034932;28;20235;-51
2022/09/14 04:10:29;;;;;;;4.80;3.13;;;23.70;71.30;;;;;;5031548;28;20235;-48
2022/09/14 04:12:55;;;;;;;8.90;3.40;;;23.70;71.70;;;;;;5044920;28;20189;-49
2022/09/14 04:15:20;;;;;;;5.07;3.10;;;23.70;71.70;;;;;;5034515;28;20614;-52
2022/09/14 04:17:46;;;;;;;5.20;3.63;;;23.70;71.50;;;;;;5035654;28;20213;-51
2022/09/14 04:20:12;;;;;;;5.07;4.00;;;23.70;71.30;;;;;;5037073;28;20228;-51
2022/09/14 04:22:38;;;;;;;4.63;3.30;;;23.70;71.40;;;;;;5033697;28;20521;-47
2022/09/14 04:25:03;;;;;;;5.47;3.80;;;23.70;71.70;;;;;;5039515;28;20263;-50
2022/09/14 04:27:29;;;;;;;3.17;2.87;;;23.70;71.50;;;;;;5034425;28;20549;-47
2022/09/14 04:29:55;;;;;;;3.40;2.83;;;23.70;71.70;;;;;;5042987;28;20319;-50
2022/09/14 04:32:21;;;;;;;3.80;3.50;;;23.70;71.80;;;;;;5040876;28;20970;-48
2022/09/14 04:34:48;;;;;;;5.57;3.20;;;23.60;71.90;;;;;;5044211;28;20207;-47
2022/09/14 04:37:13;;;;;;;5.80;3.40;;;23.70;72.30;;;;;;5044519;28;20189;-47
2022/09/14 04:39:39;;;;;;;4.27;3.30;;;23.50;73.60;;;;;;5035113;28;21147;-48
2022/09/14 04:42:05;;;;;;;4.00;3.70;;;23.40;74.40;;;;;;5046290;28;20193;-47
2022/09/14 04:44:30;;;;;;;4.83;3.83;;;23.10;75.80;;;;;;5039334;28;20193;-48
2022/09/14 04:46:56;;;;;;;6.13;3.73;;;22.90;77.20;;;;;;5041408;28;20445;-51
2022/09/14 04:49:21;;;;;;;4.33;4.00;;;22.90;77.80;;;;;;5053592;28;20202;-47
2022/09/14 04:51:47;;;;;;;4.83;4.20;;;22.90;77.20;;;;;;5043548;28;20280;-47
2022/09/14 04:54:16;;;;;;;9.00;5.30;;;22.60;78.60;;;;;;5046189;28;20196;-48
2022/09/14 04:56:42;;;;;;;6.40;4.83;;;22.80;78.70;;;;;;5041782;28;20209;-48
2022/09/14 04:59:07;;;;;;;4.60;4.20;;;23.00;78.20;;;;;;5041659;28;20495;-47
2022/09/14 05:01:36;;;;;;;7.10;4.77;;;23.20;77.10;;;;;;5040440;28;20443;-51
2022/09/14 05:04:03;;;;;;;6.57;4.20;;;23.40;76.00;;;;;;5033219;28;20602;-48
2022/09/14 05:06:31;;;;;;;5.20;4.03;;;23.60;75.30;;;;;;5037984;28;20470;-47
2022/09/14 05:08:58;;;;;;;5.73;4.30;;;23.60;74.90;;;;;;5040887;28;20442;-51
2022/09/14 05:11:30;;;;;;;4.37;4.00;;;23.70;74.50;;;;;;5043696;28;20908;-48
2022/09/14 05:13:56;;;;;;;4.93;4.10;;;23.90;74.10;;;;;;5035674;28;20454;-50
2022/09/14 05:16:25;;;;;;;5.77;3.37;;;23.80;73.80;;;;;;5035403;28;20460;-47
2022/09/14 05:18:53;;;;;;;6.30;3.40;;;23.90;73.00;;;;;;5045147;28;20852;-46
2022/09/14 05:21:21;;;;;;;4.83;3.03;;;24.00;72.10;;;;;;5030675;28;20465;-51
2022/09/14 05:23:47;;;;;;;3.43;3.17;;;24.10;71.70;;;;;;5047346;28;20443;-51
2022/09/14 05:26:13;;;;;;;4.47;3.30;;;24.20;71.10;;;;;;5037870;28;20931;-48
2022/09/14 05:28:39;;;;;;;4.67;2.97;;;24.30;70.50;;;;;;5043755;28;20435;-47
2022/09/14 05:31:10;;;;;;;5.90;4.00;;;24.20;70.90;;;;;;5043257;28;20435;-50
2022/09/14 05:33:36;;;;;;;5.00;3.10;;;24.20;71.50;;;;;;5035192;28;20216;-49
2022/09/14 05:36:04;;;;;;;4.37;2.80;;;24.10;71.10;;;;;;5028630;28;20543;-47
2022/09/14 05:38:31;;;;;;;3.50;3.30;;;24.10;70.90;;;;;;5044329;28;20578;-48
2022/09/14 05:40:57;;;;;;;8.53;3.73;;;24.30;69.50;;;;;;5036099;28;20452;-49
2022/09/14 05:43:23;;;;;;;6.40;3.20;;;24.50;68.60;;;;;;5047657;28;20439;-47
2022/09/14 05:45:49;;;;;;;8.17;2.70;;;24.70;67.20;;;;;;5049168;28;20223;-48
2022/09/14 05:48:14;;;;;;;3.30;2.50;;;24.80;66.00;;;;;;5049756;28;20506;-47
2022/09/14 05:50:40;;;;;;;3.80;3.40;;;24.90;64.50;;;;;;5048718;28;20199;-49
2022/09/14 05:53:05;;;;;;;5.63;3.13;;;25.10;63.80;;;;;;5045788;28;20199;-50
2022/09/14 05:55:31;;;;;;;4.27;2.63;;;25.20;63.70;;;;;;5045009;28;20201;-51
2022/09/14 05:57:57;;;;;;;3.70;3.20;;;25.20;63.10;;;;;;5037642;28;20216;-48
2022/09/14 06:00:23;;;;;;;3.20;2.60;;;25.30;62.40;;;;;;5041302;28;20204;-50
2022/09/14 06:02:50;;;;;;;3.27;3.07;;;25.40;62.30;;;;;;5045478;28;20189;-47
2022/09/14 06:05:16;;;;;;;3.60;2.90;;;25.50;61.90;;;;;;5043004;28;20451;-48
2022/09/14 06:07:43;;;;;;;4.00;2.90;;;25.50;61.60;;;;;;5035294;28;20455;-49
2022/09/14 06:10:09;;;;;;;3.00;2.40;;;25.60;61.20;;;;;;5040403;28;20446;-49
2022/09/14 06:12:34;;;;;;;4.47;4.07;;;25.70;61.10;;;;;;5048886;28;20431;-48
2022/09/14 06:15:00;;;;;;;4.10;2.90;;;25.80;61.20;;;;;;5031811;28;20475;-47
2022/09/14 06:17:28;;;;;;;3.83;2.77;;;25.80;61.60;;;;;;5038850;28;20200;-51
2022/09/14 06:19:54;;;;;;;4.93;3.90;;;25.90;61.30;;;;;;5039158;28;20184;-48
2022/09/14 06:22:20;;;;;;;3.80;3.50;;;25.90;61.20;;;;;;5036671;28;20446;-49
2022/09/14 06:24:45;;;;;;;4.10;3.20;;;26.00;61.10;;;;;;5036137;28;20236;-49
2022/09/14 06:27:11;;;;;;;4.53;2.70;;;26.00;60.90;;;;;;5045547;28;20213;-52
2022/09/14 06:29:37;;;;;;;5.97;2.40;;;25.60;59.90;;;;;;5039161;28;20193;-50
2022/09/14 06:32:02;;;;;;;4.80;2.60;;;25.40;60.50;;;;;;5036544;28;20201;-47
2022/09/14 06:34:29;;;;;;;8.03;4.20;;;25.80;59.80;;;;;;5034589;28;20201;-48
2022/09/14 06:36:55;;;;;;;5.27;3.13;;;26.10;59.80;;;;;;5032549;28;20201;-51
2022/09/14 06:39:20;;;;;;;2.63;2.43;;;26.20;60.00;;;;;;5041957;28;20963;-50
2022/09/14 06:41:46;;;;;;;5.90;3.17;;;25.90;59.80;;;;;;5040690;28;20444;-52
2022/09/14 06:44:11;;;;;;;3.70;2.90;;;25.50;60.50;;;;;;5039889;28;20197;-51
2022/09/14 06:46:37;;;;;;;5.50;3.10;;;25.60;60.40;;;;;;5043103;28;20193;-49
2022/09/14 06:49:06;;;;;;;5.57;2.93;;;26.00;60.00;;;;;;5040674;28;20667;-48
2022/09/14 06:51:43;;;;;;;4.43;3.10;;;25.90;61.00;;;;;;5039571;28;20193;-48
2022/09/14 06:54:11;;;;;;;3.40;3.10;;;26.00;61.70;;;;;;5049436;28;20442;-51
2022/09/14 06:56:40;;;;;;;4.53;3.57;;;26.30;61.20;;;;;;5039151;28;20454;-51
2022/09/14 06:59:07;;;;;;;4.13;3.03;;;26.40;61.10;;;;;;5046320;28;20486;-47
2022/09/14 07:01:33;;;;;;;4.90;4.50;;;26.40;61.20;;;;;;5050117;28;20454;-47
2022/09/14 07:04:00;;;;;;;3.50;2.97;;;26.50;62.00;;;;;;5041299;28;20443;-47
2022/09/14 07:06:29;;;;;;;4.47;3.27;;;26.40;61.70;;;;;;5039541;28;20247;-49
2022/09/14 07:08:55;;;;;;;7.90;4.80;;;26.40;62.00;;;;;;5039691;28;20443;-51
2022/09/14 07:11:24;;;;;;;6.17;3.97;;;26.40;62.00;;;;;;5051000;28;20446;-47
2022/09/14 07:13:51;;;;;;;5.33;3.93;;;26.60;63.20;;;;;;5044312;28;20208;-47
2022/09/14 07:16:17;;;;;;;4.20;3.70;;;26.40;64.70;;;;;;5042650;28;20454;-50
2022/09/14 07:18:43;;;;;;;4.80;3.90;;;26.10;66.50;;;;;;5051786;28;20565;-47
2022/09/14 07:21:11;;;;;;;4.50;3.80;;;26.10;66.60;;;;;;5045332;28;20709;-49
2022/09/14 07:23:39;;;;;;;5.03;3.80;;;26.10;67.60;;;;;;5048065;28;20188;-47
2022/09/14 07:26:13;;;;;;;9.03;3.57;;;26.10;67.30;;;;;;5043278;28;20463;-49
2022/09/14 07:28:40;;;;;;;5.20;3.93;;;26.30;67.40;;;;;;5045414;28;20791;-49
2022/09/14 07:31:18;;;;;;;5.10;3.80;;;26.20;68.00;;;;;;5041137;28;20454;-51
2022/09/14 07:33:44;;;;;;;4.03;3.60;;;26.20;68.20;;;;;;5048980;28;20485;-49
2022/09/14 07:36:11;;;;;;;4.23;3.53;;;26.40;67.70;;;;;;5039053;28;20444;-51
2022/09/14 07:38:37;;;;;;;5.03;4.03;;;26.40;67.50;;;;;;5038669;28;20493;-47
2022/09/14 07:41:04;;;;;;;4.10;3.23;;;26.30;68.30;;;;;;5052390;28;20419;-51
2022/09/14 07:43:30;;;;;;;5.20;4.80;;;26.40;68.30;;;;;;5046740;28;20459;-49
2022/09/14 07:45:56;;;;;;;4.47;3.80;;;26.40;68.40;;;;;;5043158;28;20450;-47
2022/09/14 07:48:22;;;;;;;4.60;4.17;;;26.30;68.80;;;;;;5048286;28;20783;-49
2022/09/14 07:50:57;;;;;;;3.57;3.27;;;26.20;68.90;;;;;;5038953;28;20196;-47
2022/09/14 07:53:23;;;;;;;3.50;3.20;;;26.30;69.20;;;;;;5048270;28;20438;-48
2022/09/14 07:55:49;;;;;;;4.90;3.80;;;26.40;69.30;;;;;;5049233;28;20443;-51
2022/09/14 07:58:14;;;;;;;5.03;3.50;;;26.50;70.20;;;;;;5042344;28;20283;-49
2022/09/14 08:00:40;;;;;;;6.67;3.83;;;26.60;70.00;;;;;;5040973;28;20204;-47
2022/09/14 08:03:06;;;;;;;6.33;3.97;;;26.80;69.20;;;;;;5041361;28;20197;-47
2022/09/14 08:05:32;;;;;;;5.10;3.90;;;26.90;68.80;;;;;;5045303;28;20609;-49
2022/09/14 08:07:58;;;;;;;7.43;4.23;;;27.00;68.20;;;;;;5043445;28;20446;-47
2022/09/14 08:10:25;;;;;;;3.50;3.30;;;27.00;68.20;;;;;;5042857;28;20208;-48
2022/09/14 08:12:54;;;;;;;4.63;3.77;;;27.00;68.10;;;;;;5047745;28;20622;-47
2022/09/14 08:15:21;;;;;;;5.23;3.53;;;26.90;68.80;;;;;;5044234;28;20440;-47
2022/09/14 08:17:48;;;;;;;3.40;3.10;;;26.90;68.20;;;;;;5041354;28;20480;-47
2022/09/14 08:20:15;;;;;;;4.83;3.93;;;26.80;69.10;;;;;;5050153;28;20455;-48
2022/09/14 08:22:43;;;;;;;4.60;3.60;;;26.90;69.00;;;;;;5042740;28;20454;-48
2022/09/14 08:25:10;;;;;;;6.63;3.83;;;26.80;67.80;;;;;;5042767;28;20528;-50
2022/09/14 08:27:36;;;;;;;3.60;3.30;;;26.70;68.50;;;;;;5042739;28;21032;-46
2022/09/14 08:30:02;;;;;;;3.90;3.50;;;26.80;68.60;;;;;;5041860;28;20490;-47
2022/09/14 08:32:27;;;;;;;3.27;3.07;;;26.50;68.40;;;;;;5045191;28;20326;-50
2022/09/14 08:34:53;;;;;;;4.03;3.63;;;26.60;69.20;;;;;;5037207;28;20877;-47
2022/09/14 08:37:18;;;;;;;3.30;3.10;;;26.50;69.00;;;;;;5044068;28;20193;-49
2022/09/14 08:39:44;;;;;;;4.50;3.67;;;26.60;68.50;;;;;;5046798;28;20228;-47
2022/09/14 08:42:15;;;;;;;3.57;3.27;;;26.40;69.00;;;;;;5046061;28;20984;-46
2022/09/14 08:44:41;;;;;;;4.00;2.60;;;26.50;68.90;;;;;;5051720;28;20270;-47
2022/09/14 08:47:18;;;;;;;4.50;2.93;;;26.70;69.00;;;;;;5050275;28;20831;-46
2022/09/14 08:49:53;;;;;;;3.80;3.60;;;26.70;68.30;;;;;;5037584;28;20200;-48
2022/09/14 08:52:25;;;;;;;3.67;3.10;;;26.50;67.50;;;;;;5043265;28;20941;-47
2022/09/14 08:54:54;;;;;;;4.17;3.57;;;26.50;68.60;;;;;;5034815;28;20443;-48
2022/09/14 08:57:44;;;;;;;4.37;3.30;;;26.50;68.20;;;;;;5042075;28;20435;-51
2022/09/14 09:00:16;;;;;;;4.57;3.80;;;26.70;68.10;;;;;;5037584;28;21278;-51
2022/09/14 09:03:03;;;;;;;4.33;3.30;;;26.80;67.40;;;;;;5035252;28;20466;-48
2022/09/14 09:05:56;;;;;;;3.10;2.80;;;26.90;67.50;;;;;;5038116;28;20446;-47
2022/09/14 09:08:52;;;;;;;6.93;3.80;;;27.00;67.10;;;;;;5045406;28;20516;-47
2022/09/14 09:11:19;;;;;;;3.20;2.90;;;27.10;66.90;;;;;;5044471;28;20986;-48
2022/09/14 09:13:47;;;;;;;4.00;3.10;;;27.30;67.00;;;;;;5043663;28;20440;-51
2022/09/14 09:16:22;;;;;;;4.13;3.60;;;27.70;65.60;;;;;;5031767;28;20438;-51
2022/09/14 09:18:55;;;;;;;3.67;3.33;;;28.00;65.20;;;;;;5036075;28;20905;-48
2022/09/14 09:21:27;;;;;;;3.63;3.33;;;28.10;63.30;;;;;;5044509;28;20454;-51
2022/09/14 09:24:21;;;;;;;4.17;3.43;;;28.00;62.70;;;;;;5047830;28;20977;-47
2022/09/14 09:26:46;;;;;;;3.77;3.33;;;27.90;62.30;;;;;;5048505;28;20447;-50
2022/09/14 09:29:13;;;;;;;3.40;3.10;;;27.70;60.70;;;;;;5038337;28;20453;-47
2022/09/14 09:31:44;;;;;;;5.90;3.40;;;27.90;60.60;;;;;;5043720;28;20234;-48
2022/09/14 09:34:16;;;;;;;3.73;3.40;;;27.80;60.00;;;;;;5044487;28;21040;-49
2022/09/14 09:36:47;;;;;;;2.80;2.60;;;27.90;61.60;;;;;;5039022;28;20522;-48
2022/09/14 09:39:14;;;;;;;4.13;2.67;;;28.00;59.80;;;;;;5037606;28;20502;-46
2022/09/14 09:41:45;;;;;;;2.73;2.43;;;28.30;59.90;;;;;;5042077;28;20447;-48
2022/09/14 09:44:10;;;;;;;5.37;2.87;;;28.50;59.80;;;;;;5047207;28;20481;-52
2022/09/14 09:46:44;;;;;;;5.20;2.43;;;28.50;58.00;;;;;;5038782;28;21408;-50
2022/09/14 09:49:27;;;;;;;3.97;3.00;;;28.60;58.40;;;;;;5035492;28;20191;-49
2022/09/14 09:51:54;;;;;;;3.57;2.67;;;28.20;57.90;;;;;;5046473;28;20466;-51
2022/09/14 09:54:31;;;;;;;2.77;2.40;;;28.10;58.20;;;;;;5038546;28;20458;-49
2022/09/14 09:57:00;;;;;;;3.00;2.80;;;28.10;58.30;;;;;;5039124;28;20435;-47
2022/09/14 09:59:31;;;;;;;3.43;2.60;;;28.10;58.90;;;;;;5045931;28;20509;-50
2022/09/14 10:02:16;;;;;;;2.50;2.40;;;28.20;59.10;;;;;;5030744;28;20535;-48
2022/09/14 10:04:55;;;;;;;5.33;2.77;;;28.30;58.50;;;;;;5032392;28;21012;-50
2022/09/14 10:07:22;;;;;;;3.33;2.70;;;28.60;58.10;;;;;;5035672;28;20467;-47
2022/09/14 10:10:01;;;;;;;4.73;3.20;;;28.70;57.90;;;;;;5048987;28;20435;-49
2022/09/14 10:12:28;;;;;;;4.67;3.17;;;28.80;57.10;;;;;;5047717;28;20529;-51
2022/09/14 10:15:05;;;;;;;3.80;2.73;;;28.90;56.80;;;;;;5038775;28;20869;-48
2022/09/14 10:17:31;;;;;;;3.57;2.50;;;29.20;56.40;;;;;;5042688;28;20443;-48
2022/09/14 10:19:57;;;;;;;4.03;2.93;;;29.10;55.10;;;;;;5036507;28;20449;-51
2022/09/14 10:22:29;;;;;;;5.03;2.97;;;29.20;55.40;;;;;;5041565;28;20629;-51
2022/09/14 10:24:57;;;;;;;5.03;3.03;;;29.50;55.20;;;;;;5039281;28;20247;-50
2022/09/14 10:27:39;;;;;;;4.60;2.80;;;29.50;54.90;;;;;;5044829;28;20450;-47
2022/09/14 10:30:11;;;;;;;6.70;2.70;;;29.80;53.70;;;;;;5050960;28;20455;-50
2022/09/14 10:32:39;;;;;;;2.50;2.30;;;30.00;53.50;;;;;;5046380;28;20534;-48
2022/09/14 10:35:14;;;;;;;2.60;2.40;;;29.90;53.40;;;;;;5047157;28;20454;-52
2022/09/14 10:38:22;;;;;;;2.97;2.63;;;29.70;53.70;;;;;;5048117;28;20933;-47
2022/09/14 10:40:58;;;;;;;2.80;2.40;;;29.90;53.90;;;;;;5052769;28;20503;-49
2022/09/14 10:43:48;;;;;;;4.70;2.60;;;30.00;53.00;;;;;;5040858;28;20446;-49
2022/09/14 10:46:20;;;;;;;3.57;2.67;;;29.90;53.20;;;;;;5048246;28;20475;-51
2022/09/14 10:48:54;;;;;;;3.57;2.47;;;30.10;52.90;;;;;;5046186;28;20443;-48
2022/09/14 10:51:46;;;;;;;3.80;2.67;;;30.40;52.60;;;;;;5046564;28;20849;-51
2022/09/14 10:54:44;;;;;;;4.97;2.90;;;30.30;52.00;;;;;;5052693;28;21019;-50
2022/09/14 10:57:48;;;;;;;4.63;3.23;;;30.20;52.20;;;;;;5048312;28;20459;-48
2022/09/14 11:00:21;;;;;;;5.43;2.83;;;30.20;51.50;;;;;;5039717;28;20470;-48
2022/09/14 11:02:50;;;;;;;2.70;2.30;;;29.70;52.00;;;;;;5038024;28;20491;-48
2022/09/14 11:05:40;;;;;;;2.97;2.33;;;29.60;52.00;;;;;;5049437;28;20497;-49
2022/09/14 11:08:27;;;;;;;3.47;2.40;;;29.60;51.70;;;;;;5042833;28;20451;-49
2022/09/14 11:11:04;;;;;;;4.67;2.60;;;29.50;52.00;;;;;;5043921;28;20533;-50
2022/09/14 11:13:44;;;;;;;2.37;2.17;;;29.40;51.90;;;;;;5039789;28;20462;-51
2022/09/14 11:16:46;;;;;;;3.73;2.37;;;29.60;52.40;;;;;;5038932;28;20447;-48
2022/09/14 11:19:20;;;;;;;3.23;2.77;;;29.70;51.90;;;;;;5047730;28;20562;-48
2022/09/14 11:21:55;;;;;;;5.93;2.40;;;29.90;51.70;;;;;;5049392;28;20474;-47
2022/09/14 11:24:24;;;;;;;2.90;2.40;;;30.00;51.80;;;;;;5052946;28;20923;-48
2022/09/14 11:27:27;;;;;;;4.13;2.13;;;30.20;50.10;;;;;;5049060;28;20451;-47
2022/09/14 11:30:09;;;;;;;4.87;3.20;;;30.30;50.70;;;;;;5050995;28;20442;-50
2022/09/14 11:32:40;;;;;;;3.30;2.60;;;30.50;50.40;;;;;;5041461;28;20526;-52
2022/09/14 11:35:14;;;;;;;2.60;2.40;;;30.60;50.20;;;;;;5048995;28;20931;-47
2022/09/14 11:37:52;;;;;;;5.90;2.60;;;30.50;49.10;;;;;;5037224;28;20462;-50
2022/09/14 11:40:28;;;;;;;3.87;2.50;;;30.70;50.20;;;;;;5039803;28;20921;-51
2022/09/14 11:43:35;;;;;;;3.17;2.30;;;30.70;49.40;;;;;;5048851;28;20541;-47
2022/09/14 11:46:14;;;;;;;2.57;2.37;;;30.80;48.90;;;;;;5027847;28;20458;-51
2022/09/14 11:48:50;;;;;;;2.70;2.20;;;30.70;48.90;;;;;;5042610;28;20448;-48
2022/09/14 11:51:40;;;;;;;3.57;2.60;;;30.80;50.00;;;;;;5043557;28;20787;-47
2022/09/14 11:54:20;;;;;;;4.77;2.47;;;30.80;49.70;;;;;;5041463;28;20458;-47
2022/09/14 11:56:54;;;;;;;3.70;2.23;;;30.80;49.20;;;;;;5042171;28;20460;-50
2022/09/14 11:59:33;;;;;;;2.97;2.40;;;30.80;48.90;;;;;;5043423;28;20512;-48
2022/09/14 12:02:21;;;;;;;7.30;2.77;;;30.80;48.70;;;;;;5042855;28;20580;-47
2022/09/14 12:05:05;;;;;;;3.07;2.60;;;31.00;48.70;;;;;;5045021;28;21015;-47
2022/09/14 12:07:44;;;;;;;8.20;2.50;;;30.80;48.60;;;;;;5046325;28;20504;-54
2022/09/14 12:10:12;;;;;;;2.27;2.07;;;30.50;49.10;;;;;;5044993;28;20457;-46
2022/09/14 12:12:40;;;;;;;2.80;2.60;;;30.60;49.50;;;;;;5035147;28;20494;-47
2022/09/14 12:15:24;;;;;;;3.40;2.30;;;30.70;49.40;;;;;;5038506;28;21529;-48
2022/09/14 12:18:15;;;;;;;2.60;2.10;;;30.70;49.10;;;;;;5040018;28;20851;-47
2022/09/14 12:20:51;;;;;;;2.70;2.50;;;30.60;48.90;;;;;;5030394;28;21025;-47
2022/09/14 12:23:20;;;;;;;3.60;1.80;;;30.50;49.20;;;;;;5046430;28;20529;-47
2022/09/14 12:26:18;;;;;;;4.23;2.20;;;30.30;48.50;;;;;;5041102;28;20547;-46
2022/09/14 12:28:51;;;;;;;4.40;2.50;;;29.90;49.00;;;;;;5031947;28;20454;-52
2022/09/14 12:31:34;;;;;;;2.50;2.30;;;29.60;49.20;;;;;;5039248;28;20443;-49
2022/09/14 12:34:20;;;;;;;2.60;2.10;;;29.40;50.30;;;;;;5037488;28;20451;-48
2022/09/14 12:36:45;;;;;;;2.20;2.10;;;29.40;50.70;;;;;;5050781;28;20852;-48
2022/09/14 12:39:29;;;;;;;3.00;2.70;;;29.40;50.60;;;;;;5043983;28;20500;-47
2022/09/14 12:41:54;;;;;;;4.23;2.60;;;29.30;50.60;;;;;;5059180;28;20211;-48
2022/09/14 12:44:39;;;;;;;5.87;2.30;;;29.30;50.90;;;;;;5051217;28;20435;-48
2022/09/14 12:47:23;;;;;;;5.10;2.47;;;29.20;51.10;;;;;;5046567;28;20192;-48
2022/09/14 12:49:49;;;;;;;2.83;2.60;;;29.20;51.60;;;;;;5047693;28;20446;-48
2022/09/14 12:52:32;;;;;;;3.17;2.87;;;29.30;52.50;;;;;;5045558;28;20538;-48
2022/09/14 12:55:15;;;;;;;2.83;2.47;;;29.20;54.30;;;;;;5037310;28;20955;-47
2022/09/14 12:58:07;;;;;;;4.40;2.67;;;28.90;54.40;;;;;;5036490;28;20539;-48
2022/09/14 13:01:08;;;;;;;3.50;2.70;;;28.40;55.90;;;;;;5050230;28;20447;-48
2022/09/14 13:03:48;;;;;;;5.77;3.90;;;28.00;57.70;;;;;;5029551;28;20464;-50
2022/09/14 13:06:25;;;;;;;4.00;2.80;;;27.40;60.90;;;;;;5033335;28;20965;-54
2022/09/14 13:08:55;;;;;;;2.50;2.30;;;27.00;61.30;;;;;;5039335;28;20459;-49